^^
MeteoGriva-Weather Station Historical Data
Daily Summary for June 7, 2020 Units:  Metric    English   Both
Daily Weekly Monthly Yearly Custom
  High: Low: Average:
Temperature: 15.6 °C 8.1 °C 11.5 °C
Dew Point: 11.5 °C 6.5 °C 9.2 °C
Humidity: 96.7% 75.6% 86%
Wind Speed: 4.4km/h 0km/h 0.4km/h
Wind Gust: 20.1km/h - -
Wind- - ENE
Pressure: 1031.5 hPa 1027.8 hPa -
Precipitation: 0.0 mm    
Historical Graphs
 
 
Tabular Data for June 7, 2020
Time Temperature Dew Point Pressure Wind Wind Speed Wind Gust Humidity Rainfall Rate (Hourly) solar
00:04 10.8 °C 7.5 °C 1028.1 hPa Calm     79.9% 0.0 mm 0 W/m2
00:09 10.4 °C 6.9 °C 1028.1 hPa Calm     79.2% 0.0 mm 0 W/m2
00:14 10.3 °C 7 °C 1028.1 hPa Calm     80.2% 0.0 mm 0 W/m2
00:19 10.2 °C 7.3 °C 1028.1 hPa Calm     81.6% 0.0 mm 0 W/m2
00:24 10.2 °C 6.7 °C 1028.1 hPa Calm     78.8% 0.0 mm 0 W/m2
00:29 10.6 °C 6.6 °C 1028.1 hPa Calm     76.8% 0.0 mm 0 W/m2
00:34 10.7 °C 6.5 °C 1028.1 hPa Calm     75.6% 0.0 mm 0 W/m2
00:39 10.8 °C 6.8 °C 1028.1 hPa SSW 0.1 km/h 4 km/h 76.6% 0.0 mm 0 W/m2
00:44 10.8 °C 7 °C 1028.1 hPa Calm     77.4% 0.0 mm 0 W/m2
00:49 10.7 °C 7.2 °C 1028.1 hPa Calm     79.1% 0.0 mm 0 W/m2
00:54 10.6 °C 7.4 °C 1028.1 hPa Calm     80.3% 0.0 mm 0 W/m2
00:59 10.6 °C 7.6 °C 1027.8 hPa Calm     81.6% 0.0 mm 0 W/m2
01:04 10.5 °C 7.7 °C 1028.1 hPa Calm     82.9% 0.0 mm 0 W/m2
01:09 10.3 °C 7.3 °C 1028.1 hPa Calm     81.6% 0.0 mm 0 W/m2
01:14 10.3 °C 7.4 °C 1028.1 hPa Calm     82% 0.0 mm 0 W/m2
01:19 10.3 °C 7.5 °C 1027.8 hPa Calm     82.9% 0.0 mm 0 W/m2
01:24 10.3 °C 7.6 °C 1027.8 hPa Calm     83.3% 0.0 mm 0 W/m2
01:29 10.2 °C 7.6 °C 1027.8 hPa West 0.4 km/h 7.9 km/h 84% 0.0 mm 0 W/m2
01:34 10.2 °C 7.7 °C 1027.8 hPa Calm     84.4% 0.0 mm 0 W/m2
01:39 10.1 °C 7.7 °C 1028.1 hPa Calm     85.2% 0.0 mm 0 W/m2
01:44 10.1 °C 7.6 °C 1028.1 hPa Calm     84.4% 0.0 mm 0 W/m2
01:49 9.8 °C 7.5 °C 1028.1 hPa Calm     85.6% 0.0 mm 0 W/m2
01:54 9.6 °C 7.4 °C 1028.5 hPa Calm     86% 0.0 mm 0 W/m2
01:59 9.6 °C 7.4 °C 1028.1 hPa Calm     86% 0.0 mm 0 W/m2
02:04 9.6 °C 7.3 °C 1028.5 hPa Calm     85.4% 0.0 mm 0 W/m2
02:09 9.7 °C 7.4 °C 1028.1 hPa Calm     85.4% 0.0 mm 0 W/m2
02:14 9.7 °C 7.6 °C 1028.5 hPa Calm     86.9% 0.0 mm 0 W/m2
02:19 9.7 °C 7.6 °C 1028.5 hPa Calm     87.1% 0.0 mm 0 W/m2
02:24 9.6 °C 7.5 °C 1028.5 hPa Calm     87.2% 0.0 mm 0 W/m2
02:29 9.4 °C 7.5 °C 1028.5 hPa Calm     88.2% 0.0 mm 0 W/m2
02:34 9.2 °C 7.1 °C 1028.5 hPa Calm     87.1% 0.0 mm 0 W/m2
02:39 9.2 °C 7.2 °C 1028.5 hPa Calm     87.8% 0.0 mm 0 W/m2
02:44 9.3 °C 7.4 °C 1028.5 hPa Calm     88.1% 0.0 mm 0 W/m2
02:49 9.5 °C 7.5 °C 1028.1 hPa Calm     87% 0.0 mm 0 W/m2
02:54 9.9 °C 7.7 °C 1028.5 hPa Calm     86.1% 0.0 mm 0 W/m2
02:59 9.9 °C 7.8 °C 1028.5 hPa Calm     86.9% 0.0 mm 0 W/m2
03:04 9.9 °C 7.7 °C 1028.5 hPa Calm     86.2% 0.0 mm 0 W/m2
03:09 10.1 °C 7.7 °C 1028.5 hPa Calm     85% 0.0 mm 0 W/m2
03:14 10.3 °C 7.7 °C 1028.5 hPa Calm     83.9% 0.0 mm 0 W/m2
03:19 10.3 °C 7.6 °C 1028.5 hPa Calm     83.7% 0.0 mm 0 W/m2
03:24 10.3 °C 7.8 °C 1028.5 hPa Calm     84.2% 0.0 mm 0 W/m2
03:29 10.2 °C 7.8 °C 1028.1 hPa Calm     84.8% 0.0 mm 0 W/m2
03:34 10.1 °C 8 °C 1028.5 hPa Calm     86.7% 0.0 mm 0 W/m2
03:39 10 °C 8.4 °C 1028.5 hPa Calm     89.7% 0.0 mm 0 W/m2
03:44 9.8 °C 8.5 °C 1028.1 hPa Calm     91.7% 0.0 mm 0 W/m2
03:49 9.3 °C 8.1 °C 1028.5 hPa Calm     92% 0.0 mm 0 W/m2
03:54 8.9 °C 7.8 °C 1028.5 hPa Calm     92.8% 0.0 mm 0 W/m2
03:59 8.9 °C 7.8 °C 1028.1 hPa Calm     93% 0.0 mm 0 W/m2
04:04 8.8 °C 7.8 °C 1028.1 hPa Calm     93.6% 0.0 mm 0 W/m2
04:09 8.6 °C 7.8 °C 1028.5 hPa Calm     94.7% 0.0 mm 0 W/m2
04:14 8.4 °C 7.5 °C 1028.5 hPa Calm     94% 0.0 mm 0 W/m2
04:19 8.4 °C 7.3 °C 1028.5 hPa Calm     93.1% 0.0 mm 0 W/m2
04:24 8.5 °C 7.4 °C 1028.5 hPa Calm     93% 0.0 mm 0 W/m2
04:29 8.6 °C 7.6 °C 1028.5 hPa Calm     93.6% 0.0 mm 0 W/m2
04:34 8.8 °C 7.9 °C 1028.5 hPa Calm     94% 0.0 mm 0 W/m2
04:39 8.8 °C 7.9 °C 1028.5 hPa Calm     94.4% 0.0 mm 0 W/m2
04:44 8.8 °C 7.9 °C 1028.8 hPa Calm     94.3% 0.0 mm 0 W/m2
04:49 8.6 °C 7.8 °C 1028.5 hPa Calm     95% 0.0 mm 0 W/m2
04:54 8.4 °C 7.5 °C 1028.5 hPa Calm     94% 0.0 mm 0 W/m2
04:59 8.4 °C 7.3 °C 1028.5 hPa Calm     92.7% 0.0 mm 0 W/m2
05:04 8.4 °C 7.4 °C 1028.8 hPa Calm     93.6% 0.0 mm 0 W/m2
05:09 8.4 °C 7.5 °C 1028.8 hPa Calm     94.7% 0.0 mm 0 W/m2
05:14 8.1 °C 7.3 °C 1028.8 hPa Calm     95% 0.0 mm 0 W/m2
05:19 8.1 °C 7.3 °C 1028.8 hPa Calm     94.5% 0.0 mm 0 W/m2
05:24 8.1 °C 7.5 °C 1028.8 hPa Calm     95.9% 0.0 mm 0 W/m2
05:29 8.1 °C 7.4 °C 1029.1 hPa Calm     95.7% 0.0 mm 0 W/m2
05:34 8.1 °C 7.5 °C 1029.1 hPa Calm     96% 0.0 mm 0 W/m2
05:39 8.1 °C 7.5 °C 1028.8 hPa Calm     96% 0.0 mm 0 W/m2
05:44 8.1 °C 7.6 °C 1028.8 hPa Calm     96.4% 0.0 mm 0 W/m2
05:49 8.1 °C 7.7 °C 1028.8 hPa Calm     96.7% 0.0 mm 0 W/m2
05:54 8.3 °C 7.5 °C 1028.8 hPa Calm     95.1% 0.0 mm 0 W/m2
05:59 8.3 °C 7.3 °C 1028.8 hPa Calm     93.4% 0.0 mm 0 W/m2
06:04 8.4 °C 7 °C 1028.8 hPa Calm     90.9% 0.0 mm 0 W/m2
06:09 8.5 °C 7.2 °C 1028.8 hPa Calm     91% 0.0 mm 0 W/m2
06:14 9.2 °C 7.6 °C 1028.8 hPa Calm     89.3% 0.0 mm 0 W/m2
06:19 9.2 °C 7.7 °C 1028.8 hPa Calm     90.4% 0.0 mm 0 W/m2
06:24 9.1 °C 7.7 °C 1029.1 hPa Calm     90.8% 0.0 mm 0 W/m2
06:29 9.1 °C 7.5 °C 1029.1 hPa Calm     90% 0.0 mm 0 W/m2
06:34 9.4 °C 7.5 °C 1028.8 hPa Calm     88% 0.0 mm 0 W/m2
06:39 9.4 °C 7.5 °C 1029.1 hPa Calm     88% 0.0 mm 0 W/m2
06:44 9.4 °C 7.5 °C 1029.1 hPa Calm     88% 0.0 mm 0 W/m2
06:49 9.4 °C 7.4 °C 1029.1 hPa Calm     87.3% 0.0 mm 0 W/m2
06:54 9.6 °C 7.7 °C 1029.1 hPa Calm     88% 0.0 mm 0 W/m2
06:59 9.5 °C 7.9 °C 1029.5 hPa Calm     89.6% 0.0 mm 0 W/m2
07:04 9.4 °C 7.8 °C 1029.5 hPa Calm     89.8% 0.0 mm 0 W/m2
07:09 9.3 °C 7.6 °C 1029.5 hPa Calm     89.4% 0.0 mm 0 W/m2
07:14 8.8 °C 7.2 °C 1029.5 hPa Calm     89.3% 0.0 mm 4 W/m2
07:19 8.9 °C 7.2 °C 1029.5 hPa Calm     88.8% 0.0 mm 8 W/m2
07:24 8.9 °C 7.1 °C 1029.8 hPa Calm     88.2% 0.0 mm 14 W/m2
07:29 9 °C 7.3 °C 1029.8 hPa Calm     88.7% 0.0 mm 20 W/m2
07:34 9.4 °C 7.5 °C 1029.8 hPa Calm     87.8% 0.0 mm 26 W/m2
07:39 9.4 °C 7.3 °C 1030.1 hPa Calm     86.7% 0.0 mm 32 W/m2
07:44 9.5 °C 7.1 °C 1030.1 hPa Calm     84.9% 0.0 mm 35 W/m2
07:49 9.8 °C 7.2 °C 1029.8 hPa Calm     83.9% 0.0 mm 42 W/m2
07:54 11 °C 8 °C 1030.1 hPa Calm     81.4% 0.0 mm 47 W/m2
07:59 11.1 °C 7.7 °C 1030.1 hPa Calm     79.6% 0.0 mm 51 W/m2
08:04 11.3 °C 7.7 °C 1030.1 hPa Calm     78.2% 0.0 mm 55 W/m2
08:09 11.7 °C 7.5 °C 1030.1 hPa Calm     75.8% 0.0 mm 60 W/m2
08:14 13 °C 9.2 °C 1030.1 hPa Calm     77.3% 0.0 mm 64 W/m2
08:19 12.9 °C 10.2 °C 1030.5 hPa Calm     83.2% 0.0 mm 66 W/m2
08:24 12.6 °C 10 °C 1030.5 hPa Calm     84.1% 0.0 mm 69 W/m2
08:29 12.3 °C 9.9 °C 1030.5 hPa Calm     85.8% 0.0 mm 71 W/m2
08:34 10.7 °C 8.4 °C 1030.8 hPa Calm     85.6% 0.0 mm 74 W/m2
08:39 10.7 °C 8.2 °C 1030.5 hPa Calm     84.1% 0.0 mm 77 W/m2
08:44 11 °C 7.9 °C 1031.2 hPa Calm     80.7% 0.0 mm 79 W/m2
08:49 11.4 °C 7.8 °C 1030.8 hPa Calm     78.3% 0.0 mm 81 W/m2
08:54 13.3 °C 9.8 °C 1031.2 hPa Calm     79.2% 0.0 mm 82 W/m2
08:59 13.4 °C 10.7 °C 1031.2 hPa East 0.2 km/h 4 km/h 83.7% 0.0 mm 83 W/m2
09:04 13 °C 11.2 °C 1031.2 hPa NE 0.3 km/h 4 km/h 88.7% 0.0 mm 83 W/m2
09:09 12.6 °C 11 °C 1031.2 hPa Calm   4 km/h 90.2% 0.0 mm 83 W/m2
09:14 11.5 °C 9.8 °C 1031.2 hPa Calm     89.2% 0.0 mm 84 W/m2
09:19 11.3 °C 9.3 °C 1031.2 hPa Calm     87.7% 0.0 mm 85 W/m2
09:24 11.3 °C 8.8 °C 1031.2 hPa Calm     84.6% 0.0 mm 86 W/m2
09:29 11.5 °C 8.6 °C 1031.2 hPa Calm     82.4% 0.0 mm 87 W/m2
09:34 11.8 °C 9 °C 1031.5 hPa Calm     83% 0.0 mm 87 W/m2
09:39 11.9 °C 9 °C 1031.2 hPa Calm     82.2% 0.0 mm 88 W/m2
09:44 12.1 °C 8.6 °C 1031.2 hPa Calm     79.1% 0.0 mm 90 W/m2
09:49 12.4 °C 8.9 °C 1031.2 hPa Calm     79.2% 0.0 mm 91 W/m2
09:54 12.6 °C 9.8 °C 1031.2 hPa Calm   4 km/h 83% 0.0 mm 93 W/m2
09:59 12.6 °C 9.9 °C 1031.5 hPa Calm     83.7% 0.0 mm 95 W/m2
10:04 12.6 °C 9.9 °C 1031.5 hPa Calm     83.7% 0.0 mm 97 W/m2
10:09 12.8 °C 9.3 °C 1031.5 hPa Calm     79.5% 0.0 mm 101 W/m2
10:14 14.3 °C 10.8 °C 1031.5 hPa Calm     79.4% 0.0 mm 105 W/m2
10:19 14.4 °C 11.1 °C 1031.5 hPa Calm     80.7% 0.0 mm 108 W/m2
10:24 14.4 °C 10.7 °C 1031.2 hPa Calm   4 km/h 78.6% 0.0 mm 112 W/m2
10:29 14.3 °C 10.7 °C 1031.2 hPa Calm   7.9 km/h 79.1% 0.0 mm 116 W/m2
10:34 14.6 °C 10.9 °C 1031.5 hPa SE 0.6 km/h 7.9 km/h 78.3% 0.0 mm 120 W/m2
10:39 14.8 °C 11.4 °C 1031.2 hPa ENE 1.4 km/h 12.2 km/h 80.1% 0.0 mm 124 W/m2
10:44 14.5 °C 11.4 °C 1031.2 hPa NE 2.7 km/h 7.9 km/h 81.6% 0.0 mm 128 W/m2
10:49 14.3 °C 11.3 °C 1031.2 hPa NNE 1.8 km/h 7.9 km/h 82.3% 0.0 mm 133 W/m2
10:54 13.9 °C 10.9 °C 1031.5 hPa NNE 1.4 km/h 7.9 km/h 81.9% 0.0 mm 138 W/m2
10:59 13.7 °C 10.7 °C 1031.5 hPa NNE 4.4 km/h 12.2 km/h 82.1% 0.0 mm 143 W/m2
11:04 13.6 °C 10.6 °C 1031.5 hPa ENE 1 km/h 7.9 km/h 81.8% 0.0 mm 148 W/m2
11:09 13.7 °C 10.5 °C 1031.5 hPa NNE 2.2 km/h 7.9 km/h 81.3% 0.0 mm 154 W/m2
11:14 13.7 °C 10.6 °C 1031.2 hPa ENE 2.2 km/h 12.2 km/h 81.4% 0.0 mm 158 W/m2
11:19 13.7 °C 10.5 °C 1031.2 hPa NE 1.4 km/h 12.2 km/h 81.1% 0.0 mm 164 W/m2
11:24 13.7 °C 10.5 °C 1031.2 hPa NE 2.7 km/h 12.2 km/h 81.1% 0.0 mm 173 W/m2
11:29 13.7 °C 10.7 °C 1031.2 hPa NE 2.1 km/h 7.9 km/h 81.9% 0.0 mm 172 W/m2
11:34 14 °C 10.6 °C 1031.2 hPa ESE 0.3 km/h 12.2 km/h 80.3% 0.0 mm 165 W/m2
11:39 14.3 °C 10.8 °C 1031.2 hPa ENE 2.3 km/h 16.3 km/h 79.5% 0.0 mm 156 W/m2
11:44 14.2 °C 10.9 °C 1030.8 hPa ENE 2.3 km/h 16.3 km/h 80.4% 0.0 mm 181 W/m2
11:49 14.2 °C 10.8 °C 1031.2 hPa NE 3.4 km/h 12.2 km/h 80.3% 0.0 mm 208 W/m2
11:54 14.1 °C 10.7 °C 1030.8 hPa NE 3.9 km/h 12.2 km/h 80.2% 0.0 mm 177 W/m2
11:59 14 °C 10.8 °C 1030.5 hPa NNE 3.4 km/h 12.2 km/h 80.8% 0.0 mm 230 W/m2
12:04 14 °C 10.7 °C 1030.5 hPa NE 0.6 km/h 12.2 km/h 80.4% 0.0 mm 232 W/m2
12:09 14.1 °C 10.5 °C 1030.5 hPa NNE 2.5 km/h 12.2 km/h 79.1% 0.0 mm 252 W/m2
12:14 14.2 °C 10.8 °C 1030.5 hPa North 2.3 km/h 12.2 km/h 79.7% 0.0 mm 263 W/m2
12:19 14.3 °C 10.7 °C 1030.5 hPa NE 3.2 km/h 12.2 km/h 79.1% 0.0 mm 273 W/m2
12:24 14.3 °C 10.6 °C 1030.1 hPa NE 2.1 km/h 12.2 km/h 78.6% 0.0 mm 282 W/m2
12:29 14.3 °C 10.7 °C 1030.1 hPa NNE 3.4 km/h 12.2 km/h 79.1% 0.0 mm 296 W/m2
12:34 14.4 °C 10.8 °C 1030.1 hPa NNE 3 km/h 12.2 km/h 79% 0.0 mm 316 W/m2
12:39 14.4 °C 10.8 °C 1030.1 hPa ENE 2.1 km/h 12.2 km/h 78.9% 0.0 mm 319 W/m2
12:44 14.4 °C 10.7 °C 1030.1 hPa NNE 2.9 km/h 12.2 km/h 78.8% 0.0 mm 333 W/m2
12:49 14.4 °C 10.7 °C 1029.8 hPa NE 3.3 km/h 12.2 km/h 78.3% 0.0 mm 347 W/m2
12:54 14.6 °C 10.8 °C 1030.1 hPa North 2.2 km/h 12.2 km/h 78.1% 0.0 mm 350 W/m2
12:59 14.8 °C 10.9 °C 1030.1 hPa NNE 3.5 km/h 12.2 km/h 77.9% 0.0 mm 356 W/m2
13:04 14.7 °C 11 °C 1029.8 hPa NE 4.2 km/h 12.2 km/h 78.7% 0.0 mm 359 W/m2
13:09 14.7 °C 11 °C 1029.8 hPa NE 2.7 km/h 12.2 km/h 78.5% 0.0 mm 366 W/m2
13:14 14.6 °C 10.8 °C 1029.8 hPa NNE 4.2 km/h 12.2 km/h 77.7% 0.0 mm 364 W/m2
13:19 14.5 °C 10.8 °C 1029.5 hPa NE 3.8 km/h 20.1 km/h 78.2% 0.0 mm 354 W/m2
13:24 14.5 °C 10.7 °C 1029.5 hPa North 2.3 km/h 20.1 km/h 77.9% 0.0 mm 356 W/m2
13:29 14.6 °C 10.7 °C 1029.5 hPa North 0.9 km/h 7.9 km/h 77.4% 0.0 mm 349 W/m2
13:34 14.6 °C 10.8 °C 1029.1 hPa ENE 0.6 km/h 7.9 km/h 78% 0.0 mm 356 W/m2
13:39 14.6 °C 10.6 °C 1029.1 hPa NNE 2.1 km/h 12.2 km/h 77.1% 0.0 mm 357 W/m2
13:44 14.6 °C 10.8 °C 1029.1 hPa NNE 1.1 km/h 12.2 km/h 77.8% 0.0 mm 350 W/m2
13:49 14.7 °C 10.7 °C 1028.8 hPa WNW 0.3 km/h 7.9 km/h 77.1% 0.0 mm 349 W/m2
13:54 14.9 °C 10.9 °C 1029.5 hPa ENE 0.4 km/h 7.9 km/h 76.7% 0.0 mm 347 W/m2
13:59 15 °C 11 °C 1028.8 hPa ENE 0.6 km/h 4 km/h 77% 0.0 mm 344 W/m2
14:04 15 °C 10.9 °C 1028.8 hPa NE 0.5 km/h 7.9 km/h 76.6% 0.0 mm 351 W/m2
14:09 15.1 °C 10.9 °C 1028.8 hPa NE 0.4 km/h 7.9 km/h 76.3% 0.0 mm 353 W/m2
14:14 15.4 °C 11.1 °C 1028.8 hPa North 1.4 km/h 12.2 km/h 75.9% 0.0 mm 350 W/m2
14:19 15.6 °C 11.5 °C 1028.8 hPa East 0.7 km/h 12.2 km/h 76.3% 0.0 mm 349 W/m2
14:24 15.6 °C 11.5 °C 1029.1 hPa NNE 1.8 km/h 12.2 km/h 76.4% 0.0 mm 333 W/m2
14:29 15.5 °C 11.3 °C 1028.8 hPa ESE 1.5 km/h 12.2 km/h 76.2% 0.0 mm 320 W/m2
14:34 15.3 °C 11.3 °C 1028.8 hPa ENE 1.3 km/h 12.2 km/h 77% 0.0 mm 330 W/m2
14:39 15.1 °C 11 °C 1029.1 hPa NE 0.8 km/h 12.2 km/h 76.9% 0.0 mm 340 W/m2
14:44 15 °C 11.1 °C 1028.8 hPa ENE 1.1 km/h 12.2 km/h 77.4% 0.0 mm 339 W/m2
14:49 15 °C 11.1 °C 1028.8 hPa NE 1 km/h 7.9 km/h 77.3% 0.0 mm 322 W/m2
14:54 14.8 °C 11 °C 1028.5 hPa NE 2.2 km/h 12.2 km/h 77.8% 0.0 mm 267 W/m2
14:59 14.6 °C 10.8 °C 1028.8 hPa East 2.4 km/h 12.2 km/h 77.9% 0.0 mm 280 W/m2
15:04 14.6 °C 10.7 °C 1028.5 hPa East 1.2 km/h 7.9 km/h 77.7% 0.0 mm 302 W/m2
15:09 14.6 °C 10.8 °C 1028.5 hPa NE 2.7 km/h 12.2 km/h 77.8% 0.0 mm 306 W/m2
15:14 14.7 °C 10.9 °C 1028.5 hPa East 0.4 km/h 12.2 km/h 78% 0.0 mm 297 W/m2
15:19 14.7 °C 10.9 °C 1028.5 hPa NNW 0.4 km/h 7.9 km/h 78% 0.0 mm 266 W/m2
15:24 14.6 °C 10.9 °C 1028.5 hPa Calm   7.9 km/h 78.4% 0.0 mm 239 W/m2
15:29 14.6 °C 10.8 °C 1028.5 hPa NE 0.6 km/h 7.9 km/h 78.1% 0.0 mm 255 W/m2
15:34 14.6 °C 11 °C 1028.5 hPa NE 0.3 km/h 7.9 km/h 79% 0.0 mm 242 W/m2
15:39 14.3 °C 10.7 °C 1028.5 hPa ENE 0.1 km/h 7.9 km/h 78.8% 0.0 mm 225 W/m2
15:44 14.3 °C 10.9 °C 1028.5 hPa NNE 0.3 km/h 4 km/h 80% 0.0 mm 80 W/m2
15:49 14.2 °C 11 °C 1028.5 hPa NNE 1.9 km/h 7.9 km/h 80.9% 0.0 mm 71 W/m2
15:54 13.9 °C 10.9 °C 1028.5 hPa NNW 1 km/h 7.9 km/h 81.9% 0.0 mm 63 W/m2
15:59 13.3 °C 10.3 °C 1028.1 hPa Calm   4 km/h 82.1% 0.0 mm 59 W/m2
16:04 13.3 °C 10.5 °C 1028.1 hPa NE 0.3 km/h 7.9 km/h 82.8% 0.0 mm 54 W/m2
16:09 13.3 °C 10.5 °C 1028.1 hPa Calm   4 km/h 83% 0.0 mm 54 W/m2
16:14 13.2 °C 10.4 °C 1028.1 hPa Calm     83% 0.0 mm 51 W/m2
16:19 12.8 °C 10.2 °C 1028.1 hPa Calm     83.9% 0.0 mm 45 W/m2
16:24 12.8 °C 10.2 °C 1028.1 hPa Calm     84% 0.0 mm 40 W/m2
16:29 12.8 °C 10.2 °C 1027.8 hPa Calm   4 km/h 84.4% 0.0 mm 36 W/m2
16:34 12.7 °C 10.2 °C 1027.8 hPa Calm   4 km/h 85% 0.0 mm 31 W/m2
16:39 12.3 °C 10 °C 1027.8 hPa Calm     85.9% 0.0 mm 29 W/m2
16:44 12.3 °C 10.2 °C 1027.8 hPa Calm     86.9% 0.0 mm 28 W/m2
16:49 12.3 °C 10.2 °C 1028.1 hPa Calm     87.4% 0.0 mm 25 W/m2
16:54 12.2 °C 10.1 °C 1027.8 hPa Calm     87.2% 0.0 mm 22 W/m2
16:59 11.9 °C 9.8 °C 1027.8 hPa Calm     87% 0.0 mm 19 W/m2
17:04 11.8 °C 9.8 °C 1028.1 hPa Calm     87.4% 0.0 mm 14 W/m2
17:09 11.8 °C 10 °C 1027.8 hPa Calm     89% 0.0 mm 10 W/m2
17:14 11.7 °C 10.2 °C 1027.8 hPa Calm     90% 0.0 mm 7 W/m2
17:19 11.2 °C 9.7 °C 1027.8 hPa Calm     90.7% 0.0 mm 3 W/m2
17:24 11.2 °C 9.8 °C 1028.1 hPa Calm     91.3% 0.0 mm 0 W/m2
17:29 11.2 °C 9.8 °C 1028.1 hPa Calm     91.7% 0.0 mm 0 W/m2
17:34 11.1 °C 9.8 °C 1027.8 hPa Calm     92% 0.0 mm 0 W/m2
17:39 10.9 °C 9.7 °C 1028.1 hPa Calm     91.8% 0.0 mm 0 W/m2
17:44 10.9 °C 9.7 °C 1028.1 hPa Calm     92.2% 0.0 mm 0 W/m2
17:49 10.8 °C 9.6 °C 1028.1 hPa Calm     92.1% 0.0 mm 0 W/m2
17:54 10.8 °C 9.5 °C 1028.1 hPa Calm     91.4% 0.0 mm 0 W/m2
17:59 11 °C 9.6 °C 1028.1 hPa Calm     91% 0.0 mm 0 W/m2
18:04 11 °C 9.7 °C 1028.1 hPa Calm     91.3% 0.0 mm 0 W/m2
18:09 11 °C 9.8 °C 1028.1 hPa Calm     92.1% 0.0 mm 0 W/m2
18:14 10.9 °C 9.7 °C 1028.1 hPa Calm     92.4% 0.0 mm 0 W/m2
18:19 10.6 °C 9.5 °C 1028.1 hPa Calm     93% 0.0 mm 0 W/m2
18:24 10.6 °C 9.5 °C 1028.5 hPa Calm     93.2% 0.0 mm 0 W/m2
18:29 10.5 °C 9.4 °C 1028.5 hPa Calm     93.2% 0.0 mm 0 W/m2
18:34 10.5 °C 9.3 °C 1028.5 hPa Calm     92% 0.0 mm 0 W/m2
18:39 10.7 °C 9.5 °C 1028.5 hPa Calm     92% 0.0 mm 0 W/m2
18:44 10.7 °C 9.5 °C 1028.5 hPa Calm     92% 0.0 mm 0 W/m2
18:49 10.8 °C 9.4 °C 1028.5 hPa Calm     91.1% 0.0 mm 0 W/m2
18:54 10.8 °C 9.5 °C 1028.8 hPa Calm     91.7% 0.0 mm 0 W/m2
18:59 10.9 °C 9.6 °C 1028.8 hPa Calm     91.4% 0.0 mm 0 W/m2
19:04 10.9 °C 9.5 °C 1028.8 hPa Calm     91% 0.0 mm 0 W/m2
19:09 10.9 °C 9.7 °C 1028.5 hPa Calm     91.9% 0.0 mm 0 W/m2
19:14 10.8 °C 9.6 °C 1028.8 hPa Calm     92% 0.0 mm 0 W/m2
19:19 10.9 °C 9.6 °C 1028.8 hPa Calm     91.4% 0.0 mm 0 W/m2
19:24 10.9 °C 9.3 °C 1028.5 hPa Calm     90.3% 0.0 mm 0 W/m2
19:29 11 °C 9.3 °C 1028.5 hPa Calm     89.2% 0.0 mm 0 W/m2
19:34 11.1 °C 9.4 °C 1028.5 hPa Calm     89.7% 0.0 mm 0 W/m2
19:39 11.2 °C 9.6 °C 1028.5 hPa Calm     90.1% 0.0 mm 0 W/m2
19:44 11.2 °C 9.7 °C 1028.5 hPa Calm     90.3% 0.0 mm 0 W/m2
19:49 11.2 °C 9.6 °C 1028.5 hPa Calm     90.2% 0.0 mm 0 W/m2
19:54 11.2 °C 9.7 °C 1028.5 hPa Calm     91% 0.0 mm 0 W/m2
19:59 10.9 °C 9.6 °C 1028.5 hPa Calm     91.6% 0.0 mm 0 W/m2
20:04 10.9 °C 9.5 °C 1028.5 hPa Calm     91.1% 0.0 mm 0 W/m2
20:09 10.9 °C 9.7 °C 1028.5 hPa Calm     92% 0.0 mm 0 W/m2
20:14 10.8 °C 9.6 °C 1028.5 hPa Calm     92% 0.0 mm 0 W/m2
20:19 10.8 °C 9.6 °C 1028.5 hPa Calm     91.8% 0.0 mm 0 W/m2
20:24 10.8 °C 9.5 °C 1029.1 hPa Calm     91.3% 0.0 mm 0 W/m2
20:29 10.8 °C 9.6 °C 1028.8 hPa Calm     92% 0.0 mm 0 W/m2
20:34 10.8 °C 9.4 °C 1028.8 hPa SSE 0.1 km/h 4 km/h 91% 0.0 mm 0 W/m2
20:39 10.9 °C 9.5 °C 1028.8 hPa Calm     91% 0.0 mm 0 W/m2
20:44 10.9 °C 9.7 °C 1028.8 hPa Calm     92% 0.0 mm 0 W/m2
20:49 10.9 °C 9.7 °C 1028.8 hPa Calm     92% 0.0 mm 0 W/m2
20:54 10.8 °C 9.7 °C 1028.8 hPa Calm     92% 0.0 mm 0 W/m2
20:59 10.7 °C 9.5 °C 1029.1 hPa Calm     92.1% 0.0 mm 0 W/m2
21:04 10.6 °C 9.4 °C 1029.1 hPa Calm     92% 0.0 mm 0 W/m2
21:09 10.7 °C 9.4 °C 1029.1 hPa Calm     91.4% 0.0 mm 0 W/m2
21:14 10.7 °C 9.5 °C 1029.1 hPa Calm     92% 0.0 mm 0 W/m2
21:19 10.8 °C 9.5 °C 1029.1 hPa Calm     91.7% 0.0 mm 0 W/m2
21:24 10.8 °C 9.4 °C 1029.5 hPa Calm     91% 0.0 mm 0 W/m2
21:29 10.8 °C 9.4 °C 1029.5 hPa Calm     91% 0.0 mm 0 W/m2
21:34 10.8 °C 9.4 °C 1029.1 hPa Calm     91% 0.0 mm 0 W/m2
21:39 10.9 °C 9.5 °C 1029.1 hPa Calm     91% 0.0 mm 0 W/m2
21:44 10.9 °C 9.3 °C 1029.5 hPa Calm     90% 0.0 mm 0 W/m2
21:49 10.9 °C 9.3 °C 1029.5 hPa Calm     89.9% 0.0 mm 0 W/m2
21:54 11 °C 9.3 °C 1029.1 hPa Calm     89.1% 0.0 mm 0 W/m2
21:59 11 °C 9.4 °C 1029.1 hPa Calm     90% 0.0 mm 0 W/m2
22:04 11 °C 9.4 °C 1029.1 hPa Calm     89.8% 0.0 mm 0 W/m2
22:09 11 °C 9.4 °C 1029.1 hPa Calm     89.8% 0.0 mm 0 W/m2
22:14 11 °C 9.3 °C 1029.1 hPa Calm     89.1% 0.0 mm 0 W/m2
22:19 11.1 °C 9.4 °C 1029.5 hPa Calm     89% 0.0 mm 0 W/m2
22:24 11.2 °C 9.5 °C 1029.5 hPa Calm     89% 0.0 mm 0 W/m2
22:29 11.2 °C 9.4 °C 1029.1 hPa Calm     88.4% 0.0 mm 0 W/m2
22:34 11.2 °C 9.4 °C 1029.1 hPa Calm     88.6% 0.0 mm 0 W/m2
22:39 11.1 °C 9.4 °C 1029.1 hPa Calm     89.2% 0.0 mm 0 W/m2
22:44 10.9 °C 9.3 °C 1029.1 hPa Calm     90% 0.0 mm 0 W/m2
22:49 10.9 °C 9.3 °C 1029.1 hPa Calm     90% 0.0 mm 0 W/m2
22:54 10.9 °C 9.3 °C 1029.1 hPa Calm     90% 0.0 mm 0 W/m2
22:59 10.8 °C 9.4 °C 1029.5 hPa Calm     90.9% 0.0 mm 0 W/m2
23:04 10.8 °C 9.3 °C 1029.5 hPa Calm     90.3% 0.0 mm 0 W/m2
23:09 10.8 °C 9.2 °C 1029.1 hPa Calm     90% 0.0 mm 0 W/m2
23:14 10.8 °C 9.2 °C 1029.1 hPa Calm     90% 0.0 mm 0 W/m2
23:19 10.9 °C 9.3 °C 1029.1 hPa Calm     90% 0.0 mm 0 W/m2
23:24 10.9 °C 9.6 °C 1029.1 hPa Calm     91.8% 0.0 mm 0 W/m2
23:29 10.8 °C 9.7 °C 1029.1 hPa Calm     93.2% 0.0 mm 0 W/m2
23:34 10.6 °C 9.7 °C 1029.1 hPa Calm     94% 0.0 mm 0 W/m2
23:39 10.5 °C 9.3 °C 1029.1 hPa Calm     92.3% 0.0 mm 0 W/m2
23:44 10.4 °C 9 °C 1029.1 hPa Calm     91% 0.0 mm 0 W/m2
23:49 10.4 °C 9.1 °C 1029.1 hPa Calm     91.6% 0.0 mm 0 W/m2
23:54 10.4 °C 9 °C 1029.1 hPa Calm     91% 0.0 mm 0 W/m2
23:59 10.5 °C 9.1 °C 1029.1 hPa Calm     91% 0.0 mm 0 W/m2
Juneau County Weather
Compliments of Weather Underground - 2 mb